Create Custom Reports and Graphics: Custom Report

Northern Napa County Map

Map

15 Minute Data

Southern Napa County Map

Map

15 Minute Data

Napa County - East

Latest Observations

15 Minute Data | America/Los_Angeles
as of 11/13/19 4:36 PM PST
Station Date Time Temp (°F) Dew Pt (°F) RH (%) Wind Dir (°) Wind Spd (mph) Wind Gust (mph) Latest Rain (In) Daily Rain (In) Daily Min Temp (°F) Daily Max Temp (°F)
Pope Valley - Weeks Lake 11/13/19 1630 70.5   4.7 41.3   0.9 35   6 ESE | 119 1.3   0.3 3.1   0.9 0.00   0.00 0.00   0.00 35.9   1.4 77.9   3.5
Dollarhide - STS 11/13/19 1630 71.1   4.7 45.8   0.7 40   7 SW | 219 1.8   3.0 4.8   2.4 0.00   0.00 0.00   0.00 42.0   0.0 79.0   3.6
1AS Remote - STS 11/13/19 1630 70.6   4.3 44.0   0.9 38   6 SSW | 195 2.3   1.2 3.8   1.3 - - 34.9   1.9 77.5   2.9
17B Remote - STS 11/13/19 1545 75.0   5.5 44.0   0.3 33   5 - - - - - 41.7   0.7 79.9   3.7
18A Remote - STS 11/13/19 1630 70.4   6.2 45.1   0.8 40   8 - - - - - 34.5   1.4 78.7   4.8
Brown Estate-Lower Chiles Valley 11/13/19 1630 68.3   1.7 45.6   4.3 44   4 S | 187 0.7   0.3 2.4   0.4 0.00   0.00 0.00   0.00 37.0   0.1 77.5   3.2
Moss Creek Vineyard 11/13/19 1630 69.1   5.7 44.9   1.6 42   9 - - - 0.00   0.00 0.00   0.00 42.0   0.0 75.5   3.5
Max     75.0 45.8 44 - 2.3 4.8 0.00 0.00 42.0 79.9
Avg     70.7 44.4 39 - 1.5 3.5 0.00 - - -
Min     68.3 41.3 33 - 0.7 2.4 0.00 0.00 34.5 75.5

Napa County - Northern/Central

14 Stations

15 Minute Data | America/Los_Angeles
as of 11/13/19 4:36 PM PST
Station Date Time Temp (°F) RH (%) Dew Pt (°F) Wind Dir (°) Wind Spd (mph) Wind Gust (mph) Latest Rain (In) Daily Rain (In) Daily Min Temp (°F) Daily Max Temp (°F)
Calistoga 11/13/19 1630 67.7   7.2 53   14 50.1   1.7 - - - 0.00 0.00 42.4   0.7 75.7   4.2
St. Helena (TSH) 11/13/19 1630 68.8   0.8 48   0 48.2   0.5 SSE | 157 3.8   1.2 7.9   3.9 0.00 0.00 43.3   1.2 75.1   7.0
Rutherford Hill - Estate 11/13/19 1630 67.4   12.8 48   18 47.2   0.8 SSE | 158 1.8   1.2 5.9   2.6 0.00 0.00 51.9   0.5 74.8   7.9
Mee Lane - MKV 11/13/19 1630 67.2   9.4 51   16 48.7   1.7 SSE | 152 4.9   3.7 11.4   7.0 0.00 0.00 41.0   2.6 73.8   7.8
Rutherford - STS 11/13/19 1630 66.0   7.8 59   18 51.3   2.6 SE | 141 6.9   5.3 12.3   9.8 0.00 0.00 41.0   1.5 75.3   8.8
Skellenger 11/13/19 1630 66.3   10.3 53   19 48.6   2.7 SSE | 158 4.1   2.7 10.3   4.9 0.00 0.00 39.3   1.5 73.4   7.8
To Kalon 11/13/19 1630 64.9   9.5 60   22 50.9   3.5 SSE | 148 7.6   5.9 11.8   8.6 0.00 0.00 41.9   2.0 73.2   8.2
Wappo Hill 11/13/19 1630 63.3   13.7 62   30 50.0   5.2 SSE | 153 5.4   2.4 9.6   3.7 0.00 0.00 39.7   1.0 73.3   7.4
Stags Leap District - Chimney Rock 11/13/19 1630 62.5   15.0 62   31 49.4   4.3 SSE | 155 3.8   2.4 8.1   3.9 0.00 0.00 38.7   1.4 72.5   9.2
Napa River Ranch 11/13/19 1630 62.0   14.2 68   32 51.4   4.4 SE | 128 3.6   2.5 7.2   3.4 0.00 0.10 39.0   0.9 71.6   8.2
Truoak 11/13/19 1630 62.8   14.2 67   34 51.8   5.7 N | 0 0.0   2.0 0.0   6.3 0.00 0.00 39.7   2.1 73.8   7.4
Hunter Ranch 53 11/13/19 1630 60.9   15.6 69   38 50.7   7.2 SE | 135 5.2   2.6 8.6   2.5 0.00 0.00 40.4   0.7 71.8   8.3
Linda Vista 11/13/19 1630 61.8   13.8 67   34 50.7   6.5 SSE | 156 4.2   2.1 7.5   3.1 0.00 0.00 41.2   0.9 71.1   8.5
Napa River Vineyard, Ranch 29 11/13/19 1630 59.8   16.2 75   39 52.0   4.4 SSW | 192 0.6   1.7 2.8   1.4 0.00 0.09 40.9   1.5 69.4   11.2
Max     68.8 75 52.0 - 7.6 12.3 0.00 0.10 51.9 75.7
Avg     64.4 60 50.1 - 4.0 8.0 0.00 - - -
Min     59.8 48 47.2 - 0.0 0.0 0.00 0.00 38.7 69.4

Napa County - South

17 Stations

15 Minute Data
as of 11/13/19 4:36 PM PST
Station Date Time Temp (°F) RH (%) Dew Pt (°F) Wind Dir (°) Wind Spd (mph) Wind Gust (mph) Latest Rain (In) Daily Rain (In) Daily Min Temp (°F) Daily Max Temp (°F)
Mt. Veeder 11/13/19 1630 64.2   4.8 52   9 46.0   0.8 WSW | 251 0.2   1.3 1.2   1.4 0.00 0.00 61.7   2.8 72.8   3.7
Palmaz 300' 11/13/19 1630 61.1   16.1 70   37 51.1   5.5 WSW | 246 0.8   0.6 2.2   0.1 0.00 0.00 43.9   1.3 75.7   9.5
Palmaz 1200' 11/13/19 1630 60.1   8.7 68   26 49.6   4.7 WSW | 254 0.0   0.3 0.8   0.9 - - 50.3   1.7 75.9   3.4
Palmaz 1400' 11/13/19 1630 59.6   11.9 67   31 48.9   5.2 SSW | 204 0.4   1.3 2.2   1.7 0.00 0.00 49.7   1.6 72.2   5.3
Truchard Base 11/13/19 1630 58.6   17.4 77   45 51.4   7.7 S | 174 5.0   1.4 8.1   2.1 0.00 0.00 49.4   1.5 70.4   10.7
Truchard Remote 11/13/19 1630 59.2   16.4 76   42 51.6   6.5 - - - - - 40.2   0.9 70.6   10.4
Toyon Base (Napa South) 11/13/19 1630 58.8   16.0 77   40 51.6   4.8 S | 170 4.5   1.8 7.1   2.3 0.00 0.00 46.0   0.0 69.0   10.9
Toyon Remote 1 11/13/19 1630 58.9   14.8 - - - - - - - 40.8   0.6 70.2   10.4
Toyon Remote 2 11/13/19 1630 58.7   15.5 - - - - - - - 39.9   0.3 69.8   9.9
Toyon Remote 3 7/10/19 0715 61.3   10.0 - - - - - - - 53.3   8.9 61.5   9.3
Napa-SE 11/13/19 1630 58.4   14.4 74   36 50.1   4.8 S | 180 3.5   1.3 6.6   1.3 0.00 0.00 42.2   0.5 69.6   12.4
Napa-SE Upper 11/13/19 1630 57.1   18.1 77   45 50.0   6.5 S | 170 5.9   4.3 7.4   3.2 0.00 0.00 52.9   2.9 69.3   10.5
Suscol Mtn 11/13/19 1630 57.4   15.2 75   40 49.4   6.3 E | 95 2.1   2.6 3.2   5.0 0.00 0.00 55.1   3.1 69.0   8.4
Stanly Ranch 45 11/13/19 1630 58.1   14.8 79   41 51.7   5.6 SSW | 197 4.4   1.2 7.8   3.0 0.00 0.00 43.3   1.3 67.4   10.7
Huichica Upper 11/13/19 1630 58.2   16.9 74   43 50.0   7.3 SSE | 163 5.2   2.0 8.2   3.5 - - 51.3   2.3 70.9   8.7
Huichica-Lower 11/13/19 1630 58.3   14.4 76   38 50.6   5.0 S | 173 4.1   3.4 6.7   4.2 0.00 0.01 42.2   0.9 69.2   9.4
Diamond R71 (Carneros) 11/13/19 1630 58.4   15.5 75   40 50.5   6.4 ESE | 115 3.5   0.8 5.7   1.4 0.00 0.00 51.0   2.0 70.0   7.4
Max     64.2 79 51.7 - 5.9 8.2 0.00 0.01 61.7 75.9
Avg     59.1 73 50.2 - 3.0 5.2 0.00 - - -
Min     57.1 52 46.0 - 0.0 0.8 0.00 0.00 39.9 67.4